Time;durP1;ratioP1;P1;durP2;ratioP2;P2;SDS_P1;SDS_P2;PMS_P1;PMS_P2;Temp;Humidity;BMP_temperature;BMP_pressure;BME280_temperature;BME280_humidity;BME280_pressure;Samples;Min_cycle;Max_cycle;Signal;HPM_P1;HPM_P2
2024/02/18 00:00:32;;;;;;;16.13;11.07;;;;;;;5.04;55.16;95995.06;5084363;28;20158;-75
2024/02/18 00:02:58;;;;;;;15.70;10.70;;;;;;;4.95;55.27;96001.97;5067058;28;20024;-76
2024/02/18 00:05:23;;;;;;;19.83;11.20;;;;;;;4.93;55.46;95993.38;5084574;28;20456;-75
2024/02/18 00:07:49;;;;;;;16.58;11.23;;;;;;;4.72;55.41;95970.22;5088048;28;20058;-75
2024/02/18 00:10:14;;;;;;;17.52;10.35;;;;;;;4.83;55.69;95996.81;5088473;28;20024;-75
2024/02/18 00:12:39;;;;;;;18.73;10.32;;;;;;;4.77;55.69;95988.19;5087443;28;20042;-75
2024/02/18 00:15:05;;;;;;;20.17;11.65;;;;;;;4.63;56.07;95979.84;5088623;28;20032;-75
2024/02/18 00:17:30;;;;;;;18.15;10.32;;;;;;;4.76;55.75;95992.84;5088076;28;20040;-76
2024/02/18 00:19:56;;;;;;;14.63;10.07;;;;;;;4.69;55.60;95994.69;5088499;28;20105;-75
2024/02/18 00:22:21;;;;;;;15.65;10.55;;;;;;;4.67;55.99;96000.53;5087425;28;20349;-76
2024/02/18 00:24:48;;;;;;;17.83;10.15;;;;;;;4.65;55.78;95999.34;5088170;28;20032;-74
2024/02/18 00:27:14;;;;;;;17.38;11.32;;;;;;;4.56;56.05;95999.63;5087778;28;20115;-75
2024/02/18 00:29:39;;;;;;;15.38;10.25;;;;;;;4.50;56.77;96001.13;5087926;28;20183;-76
2024/02/18 00:32:05;;;;;;;20.23;11.25;;;;;;;4.52;56.47;95999.56;5088681;28;20123;-75
2024/02/18 00:34:31;;;;;;;20.67;11.10;;;;;;;4.49;56.43;96000.34;5087492;28;20069;-76
2024/02/18 00:36:56;;;;;;;20.80;12.10;;;;;;;4.50;56.82;96001.13;5088822;28;20031;-75
2024/02/18 00:39:22;;;;;;;19.42;11.05;;;;;;;4.48;56.71;95993.31;5086979;28;20093;-75
2024/02/18 00:41:47;;;;;;;18.13;11.45;;;;;;;4.48;56.62;95989.81;5087832;28;20092;-76
2024/02/18 00:44:13;;;;;;;16.77;10.65;;;;;;;4.44;57.19;95999.88;5087206;28;20028;-75
2024/02/18 00:46:38;;;;;;;18.42;10.52;;;;;;;4.37;56.90;96006.03;5087556;28;20067;-75
2024/02/18 00:49:03;;;;;;;15.73;10.00;;;;;;;4.30;57.11;96000.50;5087487;28;20423;-75
2024/02/18 00:51:29;;;;;;;16.95;9.90;;;;;;;4.38;57.26;95995.91;5087008;28;20106;-75
2024/02/18 00:53:54;;;;;;;17.25;10.80;;;;;;;4.35;57.61;96002.88;5088178;28;20467;-75
2024/02/18 00:56:19;;;;;;;17.77;10.63;;;;;;;4.32;57.54;96000.91;5086674;28;20559;-75
2024/02/18 00:58:47;;;;;;;17.60;11.32;;;;;;;4.31;57.74;96002.06;5088006;28;20095;-75
2024/02/18 01:01:13;;;;;;;20.05;11.50;;;;;;;4.25;57.92;95989.94;5068807;28;20494;-74
2024/02/18 01:03:38;;;;;;;18.45;11.80;;;;;;;4.34;58.04;96000.53;5069550;28;20067;-75
2024/02/18 01:06:04;;;;;;;17.55;11.60;;;;;;;4.26;58.00;96000.44;5087517;28;20028;-75
2024/02/18 01:08:30;;;;;;;21.42;11.25;;;;;;;4.20;58.27;95988.31;5087057;28;20024;-75
2024/02/18 01:10:56;;;;;;;17.30;11.32;;;;;;;4.25;58.19;95995.38;5087767;28;20085;-77
2024/02/18 01:13:21;;;;;;;17.88;10.90;;;;;;;4.31;58.00;95993.13;5085914;28;20040;-74
2024/02/18 01:15:46;;;;;;;16.10;10.75;;;;;;;4.29;58.07;95985.31;5087441;28;20028;-76
2024/02/18 01:18:14;;;;;;;18.13;11.07;;;;;;;4.25;57.91;95985.28;5085825;28;20115;-75
2024/02/18 01:20:39;;;;;;;19.08;10.95;;;;;;;4.15;57.78;95974.25;5087314;28;20020;-75
2024/02/18 01:23:05;;;;;;;14.88;9.63;;;;;;;4.21;57.58;95989.09;5086377;28;20471;-75
2024/02/18 01:25:30;;;;;;;17.33;9.50;;;;;;;4.11;57.69;95970.69;5087076;28;20028;-74
2024/02/18 01:27:56;;;;;;;17.52;10.10;;;;;;;4.21;57.21;95983.66;5087357;28;20036;-75
2024/02/18 01:30:22;;;;;;;14.43;9.27;;;;;;;4.09;57.41;95981.19;5086378;28;20032;-75
2024/02/18 01:32:47;;;;;;;17.52;10.55;;;;;;;4.07;57.55;95981.56;5087275;28;20028;-75
2024/02/18 01:35:13;;;;;;;16.92;9.80;;;;;;;4.02;57.62;95970.19;5085845;28;20027;-75
2024/02/18 01:37:38;;;;;;;14.88;9.43;;;;;;;4.10;57.28;95974.56;5087389;28;20028;-74
2024/02/18 01:40:07;;;;;;;15.82;9.65;;;;;;;4.03;57.45;95972.53;5086069;28;20060;-74
2024/02/18 01:42:32;;;;;;;18.40;10.43;;;;;;;4.02;57.38;95975.66;5086242;28;20031;-74
2024/02/18 01:44:58;;;;;;;14.50;9.52;;;;;;;4.00;57.52;95973.28;5086714;28;20039;-75
2024/02/18 01:47:24;;;;;;;16.83;10.27;;;;;;;3.96;57.43;95973.25;5085778;28;20077;-76
2024/02/18 01:49:51;;;;;;;15.77;10.30;;;;;;;3.93;57.33;95975.91;5087473;28;20028;-74
2024/02/18 01:52:17;;;;;;;15.68;9.60;;;;;;;3.95;57.25;95977.09;5067686;28;20035;-75
2024/02/18 01:54:42;;;;;;;16.52;9.25;;;;;;;3.89;57.65;95984.00;5086229;28;20059;-74
2024/02/18 01:57:08;;;;;;;16.27;10.65;;;;;;;3.88;57.56;95987.88;5085786;28;20433;-75
2024/02/18 01:59:34;;;;;;;15.40;9.52;;;;;;;3.85;57.71;95985.91;5086619;28;20178;-75
2024/02/18 02:02:00;;;;;;;15.07;9.75;;;;;;;3.82;57.80;95981.19;5085808;28;20064;-75
2024/02/18 02:04:27;;;;;;;14.98;9.48;;;;;;;3.76;57.73;95981.88;5067286;28;20086;-75
2024/02/18 02:06:53;;;;;;;19.98;10.48;;;;;;;3.75;57.89;95988.47;5069003;28;20080;-76
2024/02/18 02:09:18;;;;;;;15.27;9.55;;;;;;;3.77;57.79;95992.38;5085460;28;20024;-75
2024/02/18 02:11:44;;;;;;;17.13;9.07;;;;;;;3.74;57.82;95987.69;5086778;28;20047;-75
2024/02/18 02:14:10;;;;;;;19.27;10.02;;;;;;;3.77;57.55;95986.94;5066721;28;20123;-74
2024/02/18 02:16:36;;;;;;;16.48;10.05;;;;;;;3.78;57.69;95990.47;5086440;28;20085;-76
2024/02/18 02:19:01;;;;;;;18.40;10.50;;;;;;;3.75;57.96;96004.81;5067101;28;20449;-76
2024/02/18 02:21:26;;;;;;;16.27;9.35;;;;;;;3.70;57.77;95998.53;5086178;28;20111;-76
2024/02/18 02:23:52;;;;;;;15.30;9.75;;;;;;;3.70;57.39;95998.53;5086249;28;20039;-76
2024/02/18 02:26:20;;;;;;;14.15;9.55;;;;;;;3.68;57.52;95994.59;5084984;28;20117;-76
2024/02/18 02:28:47;;;;;;;15.55;9.73;;;;;;;3.71;57.53;96002.03;5086280;28;20450;-75
2024/02/18 02:31:13;;;;;;;12.75;9.40;;;;;;;3.68;57.63;96000.06;5085262;28;20047;-75
2024/02/18 02:33:40;;;;;;;18.10;9.77;;;;;;;3.63;57.68;96005.78;5069011;28;20043;-76
2024/02/18 02:36:05;;;;;;;12.48;8.82;;;;;;;3.62;57.62;96015.88;5085781;28;20028;-76
2024/02/18 02:38:32;;;;;;;15.15;9.73;;;;;;;3.52;57.86;96008.34;5085669;28;20086;-75
2024/02/18 02:40:57;;;;;;;19.30;9.68;;;;;;;3.46;57.95;96020.69;5086347;28;20039;-76
2024/02/18 02:43:23;;;;;;;16.80;9.45;;;;;;;3.47;57.86;96014.09;5085302;28;20046;-75
2024/02/18 02:45:49;;;;;;;18.73;10.57;;;;;;;3.44;58.07;96012.09;5086043;28;20486;-75
2024/02/18 02:48:14;;;;;;;15.18;9.77;;;;;;;3.42;58.23;96022.56;5084598;28;20096;-75
2024/02/18 02:50:39;;;;;;;16.50;9.88;;;;;;;3.41;59.29;96013.63;5085990;28;20035;-75
2024/02/18 02:53:05;;;;;;;15.77;9.95;;;;;;;3.41;58.66;96019.06;5084966;28;20028;-75
2024/02/18 02:55:30;;;;;;;15.15;9.02;;;;;;;3.43;58.07;96013.25;5085475;28;20056;-74
2024/02/18 02:57:56;;;;;;;13.52;9.43;;;;;;;3.41;57.61;96021.78;5085378;28;20036;-75
2024/02/18 03:00:21;;;;;;;14.50;7.82;;;;;;;3.36;57.61;96024.00;5085104;28;20032;-75
2024/02/18 03:02:47;;;;;;;18.92;8.75;;;;;;;3.25;57.74;96010.25;5085736;28;20029;-75
2024/02/18 03:05:12;;;;;;;13.57;8.43;;;;;;;3.28;57.80;96019.63;5084192;28;20059;-75
2024/02/18 03:07:38;;;;;;;15.18;9.18;;;;;;;3.23;57.62;96020.69;5086151;28;20028;-76
2024/02/18 03:10:04;;;;;;;13.73;9.07;;;;;;;3.23;57.72;96017.97;5066674;28;20036;-76
2024/02/18 03:12:30;;;;;;;14.07;9.57;;;;;;;3.15;57.69;96010.84;5085332;28;20082;-75
2024/02/18 03:14:55;;;;;;;18.17;8.48;;;;;;;3.27;57.72;96024.28;5084748;28;20586;-76
2024/02/18 03:17:20;;;;;;;14.68;8.23;;;;;;;3.23;57.67;96028.06;5085578;28;20024;-76
2024/02/18 03:19:46;;;;;;;15.90;8.68;;;;;;;3.18;57.78;96019.06;5085178;28;20039;-75
2024/02/18 03:22:18;;;;;;;14.63;8.48;;;;;;;3.20;57.74;96021.41;5084092;28;20603;-74
2024/02/18 03:24:43;;;;;;;15.35;8.88;;;;;;;3.22;57.64;96027.28;5085738;28;20036;-75
2024/02/18 03:27:09;;;;;;;12.90;8.18;;;;;;;3.25;57.28;96029.25;5084613;28;20359;-75
2024/02/18 03:29:34;;;;;;;14.02;8.98;;;;;;;3.26;57.20;96032.78;5084984;28;20040;-76
2024/02/18 03:31:59;;;;;;;13.48;8.95;;;;;;;3.25;57.32;96031.19;5084585;28;20042;-75
2024/02/18 03:34:25;;;;;;;11.70;7.72;;;;;;;3.28;57.16;96035.94;5085196;28;20028;-74
2024/02/18 03:36:50;;;;;;;12.05;8.63;;;;;;;3.27;57.11;96037.06;5084757;28;20496;-76
2024/02/18 03:39:16;;;;;;;13.13;8.35;;;;;;;3.23;57.16;96034.28;5083965;28;20106;-75
2024/02/18 03:41:42;;;;;;;13.85;7.65;;;;;;;3.30;57.06;96044.50;5087937;28;20062;-76
2024/02/18 03:44:07;;;;;;;19.27;9.65;;;;;;;3.23;57.25;96047.09;5088185;28;20115;-75
2024/02/18 03:46:32;;;;;;;16.85;10.52;;;;;;;3.16;57.45;96045.03;5088667;28;20486;-74
2024/02/18 03:48:58;;;;;;;15.32;8.73;;;;;;;3.20;57.30;96049.38;5088098;28;20024;-75
2024/02/18 03:51:23;;;;;;;14.50;8.65;;;;;;;3.18;57.14;96051.69;5088773;28;20382;-75
2024/02/18 03:53:49;;;;;;;15.93;9.70;;;;;;;3.22;57.21;96054.47;5088050;28;20024;-75
2024/02/18 03:56:14;;;;;;;14.85;8.85;;;;;;;3.22;56.98;96054.47;5088581;28;20067;-75
2024/02/18 03:58:39;;;;;;;15.98;8.20;;;;;;;3.20;57.32;96051.31;5088582;28;20028;-75
2024/02/18 04:01:05;;;;;;;13.32;9.13;;;;;;;3.27;57.04;96047.91;5088216;28;20082;-75
2024/02/18 04:03:30;;;;;;;16.08;9.00;;;;;;;3.32;57.11;96050.34;5089230;28;20466;-74
2024/02/18 04:05:55;;;;;;;13.27;8.55;;;;;;;3.39;56.80;96050.47;5087538;28;20024;-76
2024/02/18 04:08:21;;;;;;;13.50;9.18;;;;;;;3.46;56.26;96050.59;5088281;28;20080;-74
2024/02/18 04:10:46;;;;;;;17.35;8.52;;;;;;;3.46;56.22;96050.59;5069277;28;20067;-75
2024/02/18 04:13:11;;;;;;;15.75;8.55;;;;;;;3.52;55.80;96051.06;5088043;28;20059;-75
2024/02/18 04:15:37;;;;;;;14.60;9.40;;;;;;;3.57;55.52;96050.75;5069170;28;20059;-75
2024/02/18 04:18:02;;;;;;;14.27;8.88;;;;;;;3.62;55.68;96055.91;5087996;28;20039;-76
2024/02/18 04:20:28;;;;;;;14.93;9.80;;;;;;;3.71;55.47;96062.63;5088538;28;20031;-75
2024/02/18 04:22:53;;;;;;;18.27;9.50;;;;;;;3.78;55.71;96056.50;5087796;28;20139;-76
2024/02/18 04:25:18;;;;;;;15.13;10.38;;;;;;;3.85;55.95;96053.16;5088790;28;20085;-76
2024/02/18 04:27:44;;;;;;;16.80;10.32;;;;;;;3.91;55.87;96060.63;5087887;28;20031;-75
2024/02/18 04:30:09;;;;;;;16.48;10.77;;;;;;;3.93;56.06;96054.81;5087993;28;20513;-75
2024/02/18 04:32:35;;;;;;;15.23;10.63;;;;;;;3.98;56.11;96049.06;5087304;28;20027;-76
2024/02/18 04:35:00;;;;;;;16.35;10.75;;;;;;;4.00;56.12;96050.25;5088064;28;20028;-76
2024/02/18 04:37:26;;;;;;;17.13;10.52;;;;;;;4.08;56.07;96042.19;5087888;28;20470;-75
2024/02/18 04:39:52;;;;;;;16.15;10.40;;;;;;;4.14;55.72;96044.22;5087332;28;20020;-76
2024/02/18 04:42:17;;;;;;;19.42;11.25;;;;;;;4.17;55.50;96048.13;5070266;28;20047;-75
2024/02/18 04:44:42;;;;;;;17.88;10.82;;;;;;;4.20;55.60;96050.91;5087274;28;20419;-75
2024/02/18 04:47:08;;;;;;;17.52;11.05;;;;;;;4.24;55.58;96051.75;5088327;28;20062;-75
2024/02/18 04:49:33;;;;;;;16.38;10.70;;;;;;;4.33;55.13;96051.47;5087044;28;20032;-76
2024/02/18 04:52:00;;;;;;;18.52;11.32;;;;;;;4.39;55.05;96049.22;5087531;28;20107;-76
2024/02/18 04:54:26;;;;;;;16.00;10.55;;;;;;;4.41;54.92;96050.41;5087087;28;20103;-76
2024/02/18 04:56:51;;;;;;;16.02;10.23;;;;;;;4.44;54.77;96054.34;5087404;28;20118;-76
2024/02/18 04:59:16;;;;;;;17.55;11.07;;;;;;;4.40;54.58;96048.84;5088041;28;20050;-75
2024/02/18 05:01:47;;;;;;;17.55;10.40;;;;;;;4.50;54.78;96050.13;5064919;28;20493;-76
2024/02/18 05:04:12;;;;;;;20.88;10.93;;;;;;;4.55;54.60;96046.31;5067872;28;20028;-75
2024/02/18 05:06:38;;;;;;;16.42;11.55;;;;;;;4.59;54.50;96050.63;5066469;28;20032;-76
2024/02/18 05:09:03;;;;;;;18.55;10.85;;;;;;;4.63;54.69;96048.72;5067432;28;20029;-75
2024/02/18 05:11:29;;;;;;;21.02;12.32;;;;;;;4.74;54.38;96040.69;5066766;28;20040;-75
2024/02/18 05:13:54;;;;;;;17.73;11.35;;;;;;;4.82;54.22;96038.81;5067500;28;20423;-76
2024/02/18 05:16:19;;;;;;;19.50;12.88;;;;;;;4.79;54.14;96043.84;5067349;28;20024;-75
2024/02/18 05:18:46;;;;;;;19.75;11.80;;;;;;;4.81;54.37;96043.47;5067012;28;20046;-76
2024/02/18 05:21:12;;;;;;;18.85;12.55;;;;;;;4.82;54.01;96052.44;5067861;28;20032;-76
2024/02/18 05:23:39;;;;;;;18.02;11.38;;;;;;;4.84;54.24;96050.91;5066063;28;20024;-75
2024/02/18 05:26:04;;;;;;;17.95;11.05;;;;;;;4.90;54.02;96057.59;5067363;28;20094;-76
2024/02/18 05:28:30;;;;;;;20.75;12.25;;;;;;;4.84;54.22;96056.38;5064657;28;20434;-75
2024/02/18 05:30:57;;;;;;;20.52;13.02;;;;;;;4.82;53.93;96046.97;5066995;28;20032;-76
2024/02/18 05:33:23;;;;;;;19.63;13.20;;;;;;;4.91;53.80;96050.22;5066690;28;20025;-74
2024/02/18 05:35:48;;;;;;;18.95;13.52;;;;;;;4.95;53.85;96067.38;5066776;28;20028;-75
2024/02/18 05:38:13;;;;;;;24.58;16.65;;;;;;;4.94;53.76;96069.34;5067348;28;20031;-76
2024/02/18 05:40:39;;;;;;;33.30;24.45;;;;;;;4.92;53.61;96066.19;5066051;28;20501;-78
2024/02/18 05:43:04;;;;;;;36.40;25.63;;;;;;;4.90;53.60;96068.50;5067289;28;20035;-75
2024/02/18 05:45:31;;;;;;;35.25;26.05;;;;;;;4.89;53.61;96077.84;5065911;28;20513;-75
2024/02/18 05:47:57;;;;;;;43.30;32.17;;;;;;;4.82;53.67;96077.75;5066648;28;20036;-74
2024/02/18 05:50:22;;;;;;;47.55;33.47;;;;;;;4.81;53.75;96081.63;5065843;28;20032;-74
2024/02/18 05:52:48;;;;;;;45.90;34.17;;;;;;;4.76;53.71;96085.47;5066308;28;20438;-76
2024/02/18 05:55:13;;;;;;;56.53;41.38;;;;;;;4.69;54.07;96081.88;5066439;28;20423;-76
2024/02/18 05:57:39;;;;;;;61.85;41.75;;;;;;;4.69;54.11;96082.66;5065648;28;20036;-75
2024/02/18 06:00:05;;;;;;;60.45;42.00;;;;;;;4.65;54.17;96084.56;5066889;28;20153;-75
2024/02/18 06:02:30;;;;;;;56.17;42.05;;;;;;;4.67;54.30;96090.41;5083342;28;20110;-75
2024/02/18 06:04:56;;;;;;;58.28;43.08;;;;;;;4.67;54.13;96095.09;5085890;28;20030;-76
2024/02/18 06:07:21;;;;;;;59.38;41.72;;;;;;;4.69;53.95;96099.00;5085661;28;20038;-76
2024/02/18 06:09:48;;;;;;;55.55;39.75;;;;;;;4.74;54.02;96103.34;5068126;28;20081;-74
2024/02/18 06:12:14;;;;;;;49.55;35.22;;;;;;;4.79;54.12;96106.53;5086276;28;20036;-76
2024/02/18 06:14:39;;;;;;;46.05;34.40;;;;;;;4.83;53.99;96114.75;5085744;28;20494;-75
2024/02/18 06:17:05;;;;;;;47.83;33.60;;;;;;;4.86;53.97;96113.22;5086711;28;20093;-76
2024/02/18 06:19:30;;;;;;;47.30;33.00;;;;;;;4.88;53.77;96106.25;5085285;28;20055;-75
2024/02/18 06:21:56;;;;;;;46.03;32.83;;;;;;;4.92;53.98;96109.00;5086662;28;20463;-75
2024/02/18 06:24:27;;;;;;;47.47;33.78;;;;;;;4.92;53.98;96115.22;5085180;28;20034;-76
2024/02/18 06:26:52;;;;;;;55.88;37.25;;;;;;;4.94;53.97;96117.59;5086210;28;20051;-76
2024/02/18 06:29:18;;;;;;;45.22;33.67;;;;;;;4.98;53.89;96111.00;5085758;28;20027;-77
2024/02/18 06:31:43;;;;;;;46.58;31.02;;;;;;;4.95;53.83;96111.78;5086051;28;20446;-77
2024/02/18 06:34:09;;;;;;;50.00;31.85;;;;;;;5.00;54.13;96122.34;5085805;28;20052;-76
2024/02/18 06:36:36;;;;;;;49.85;32.15;;;;;;;5.05;54.15;96124.75;5085214;28;20077;-74
2024/02/18 06:39:03;;;;;;;50.85;30.90;;;;;;;5.07;54.11;96127.09;5086340;28;20461;-76
2024/02/18 06:41:28;;;;;;;45.42;31.25;;;;;;;5.08;53.96;96125.94;5050524;28;20055;-76
2024/02/18 06:43:53;;;;;;;43.53;28.50;;;;;;;5.18;53.70;96130.72;5086039;28;20028;-76
2024/02/18 06:46:19;;;;;;;39.13;26.60;;;;;;;5.23;53.78;96129.59;5085030;28;20055;-76
2024/02/18 06:48:44;;;;;;;42.55;26.27;;;;;;;5.25;53.98;96130.78;5085752;28;20028;-76
2024/02/18 06:51:10;;;;;;;36.03;25.83;;;;;;;5.35;53.81;96125.84;5085737;28;20099;-76
2024/02/18 06:53:35;;;;;;;40.00;25.52;;;;;;;5.43;53.85;96130.19;5084865;28;20024;-76
2024/02/18 06:56:01;;;;;;;37.92;24.30;;;;;;;5.45;53.89;96128.69;5068127;28;20324;-76
2024/02/18 06:58:26;;;;;;;37.78;24.40;;;;;;;5.49;54.07;96129.47;5084705;28;20023;-76
2024/02/18 07:00:52;;;;;;;35.63;22.05;;;;;;;5.58;53.74;96137.38;5086118;28;20129;-77
2024/02/18 07:03:17;;;;;;;32.97;22.75;;;;;;;5.60;53.88;96132.31;5085213;28;20039;-76
2024/02/18 07:05:42;;;;;;;37.70;25.17;;;;;;;5.73;54.22;96135.53;5085847;28;20233;-77
2024/02/18 07:08:08;;;;;;;26.60;17.67;;;;;;;5.96;54.13;96130.69;5067254;28;20502;-75
2024/02/18 07:10:33;;;;;;;27.67;17.73;;;;;;;6.19;54.23;96129.69;5085456;28;20107;-76
2024/02/18 07:12:58;;;;;;;24.20;16.05;;;;;;;6.36;54.68;96127.09;5085771;28;20034;-76
2024/02/18 07:15:24;;;;;;;25.58;16.17;;;;;;;6.48;55.08;96120.56;5086510;28;20039;-77
2024/02/18 07:17:49;;;;;;;26.67;16.83;;;;;;;6.70;55.28;96129.63;5090166;28;20036;-77
2024/02/18 07:20:15;;;;;;;24.60;16.55;;;;;;;6.79;55.89;96134.75;5089321;28;20020;-76
2024/02/18 07:22:44;;;;;;;24.35;16.98;;;;;;;6.78;56.23;96131.25;5089808;28;20043;-76
2024/02/18 07:25:09;;;;;;;30.45;17.27;;;;;;;6.84;56.91;96131.66;5089123;28;20073;-76
2024/02/18 07:27:35;;;;;;;29.00;17.25;;;;;;;6.82;56.91;96131.25;5089480;28;20032;-77
2024/02/18 07:30:02;;;;;;;27.25;17.38;;;;;;;6.86;57.65;96138.31;5089636;28;20398;-75
2024/02/18 07:32:27;;;;;;;29.13;18.02;;;;;;;6.87;57.93;96145.34;5089079;28;20489;-76
2024/02/18 07:34:53;;;;;;;28.70;17.83;;;;;;;6.86;57.75;96151.97;5055394;28;20085;-78
2024/02/18 07:37:18;;;;;;;28.25;18.15;;;;;;;6.85;58.07;96157.81;5070838;28;20056;-77
2024/02/18 07:39:44;;;;;;;28.08;18.17;;;;;;;6.82;58.25;96158.56;5089683;28;20120;-76
2024/02/18 07:42:10;;;;;;;38.97;21.50;;;;;;;6.84;58.47;96153.53;5070483;28;20421;-78
2024/02/18 07:44:35;;;;;;;31.05;19.85;;;;;;;6.85;58.50;96155.09;5071742;28;20145;-78
2024/02/18 07:47:01;;;;;;;30.02;19.80;;;;;;;6.91;58.51;96159.03;5070954;28;20028;-77
2024/02/18 07:49:26;;;;;;;29.50;18.90;;;;;;;6.97;57.99;96154.75;5089176;28;20102;-76
2024/02/18 07:51:52;;;;;;;27.33;18.15;;;;;;;7.03;58.10;96157.91;5071225;28;20123;-77
2024/02/18 07:54:17;;;;;;;31.00;18.75;;;;;;;7.00;58.09;96159.47;5070064;28;20039;-77
2024/02/18 07:56:44;;;;;;;35.20;19.60;;;;;;;6.98;58.05;96156.31;5089356;28;20621;-78
2024/02/18 07:59:10;;;;;;;28.92;18.80;;;;;;;6.98;58.16;96150.06;5088207;28;20035;-77
2024/02/18 08:01:35;;;;;;;30.10;19.35;;;;;;;7.03;57.77;96155.16;5088823;28;20047;-77
2024/02/18 08:04:00;;;;;;;29.05;18.95;;;;;;;7.07;57.98;96150.50;5088194;28;20024;-76
2024/02/18 08:06:29;;;;;;;29.17;18.88;;;;;;;7.11;58.04;96160.31;5088512;28;20561;-76
2024/02/18 08:08:55;;;;;;;30.45;18.33;;;;;;;7.08;57.94;96152.06;5088805;28;20028;-79
2024/02/18 08:11:20;;;;;;;27.38;18.25;;;;;;;7.13;58.42;96151.72;5088221;28;20035;-77
2024/02/18 08:13:45;;;;;;;27.48;19.58;;;;;;;7.15;59.46;96160.28;5089060;28;20036;-77
2024/02/18 08:16:12;;;;;;;27.98;18.90;;;;;;;7.12;58.69;96150.94;5088071;28;20020;-76
2024/02/18 08:18:37;;;;;;;27.77;19.08;;;;;;;7.23;58.25;96161.13;5089027;28;20020;-75
2024/02/18 08:21:02;;;;;;;26.80;17.90;;;;;;;7.24;57.84;96165.44;5087759;28;20020;-76
2024/02/18 08:23:28;;;;;;;29.55;18.30;;;;;;;7.39;57.63;96161.56;5088571;28;20106;-75
2024/02/18 08:25:53;;;;;;;28.55;18.10;;;;;;;7.44;57.78;96166.66;5087674;28;20040;-75
2024/02/18 08:28:18;;;;;;;32.53;18.30;;;;;;;7.44;57.50;96167.44;5087798;28;20035;-74
2024/02/18 08:30:44;;;;;;;29.30;18.65;;;;;;;7.43;57.89;96170.56;5088080;28;20027;-75
2024/02/18 08:33:09;;;;;;;31.02;19.65;;;;;;;7.47;58.33;96163.16;5087943;28;20401;-74
2024/02/18 08:35:35;;;;;;;31.42;19.67;;;;;;;7.44;58.57;96169.38;5089054;28;20048;-76
2024/02/18 08:38:00;;;;;;;28.23;19.17;;;;;;;7.33;58.70;96163.09;5087423;28;20146;-76
2024/02/18 08:40:25;;;;;;;34.05;21.02;;;;;;;7.47;59.05;96165.09;5070082;28;20112;-75
2024/02/18 08:42:51;;;;;;;36.60;22.35;;;;;;;7.51;59.42;96174.09;5087777;28;20093;-78
2024/02/18 08:45:16;;;;;;;38.92;22.95;;;;;;;7.47;59.79;96171.38;5088203;28;20024;-76
2024/02/18 08:47:41;;;;;;;35.20;21.67;;;;;;;7.42;60.24;96163.53;5087344;28;20070;-76
2024/02/18 08:50:07;;;;;;;36.15;22.35;;;;;;;7.44;60.40;96174.84;5087610;28;20016;-76
2024/02/18 08:52:32;;;;;;;39.30;22.67;;;;;;;7.45;60.78;96179.97;5069844;28;20020;-76
2024/02/18 08:54:58;;;;;;;40.38;23.60;;;;;;;7.48;60.97;96172.94;5087466;28;20137;-76
2024/02/18 08:57:23;;;;;;;44.05;23.27;;;;;;;7.47;60.94;96185.03;5088423;28;20113;-75
2024/02/18 08:59:49;;;;;;;42.95;24.40;;;;;;;7.42;61.74;96169.00;5086908;28;20027;-76
2024/02/18 09:02:15;;;;;;;40.25;25.13;;;;;;;7.31;62.09;96168.19;5088694;28;20040;-79
2024/02/18 09:04:40;;;;;;;43.15;24.08;;;;;;;7.38;62.17;96179.13;5094697;28;20031;-79
2024/02/18 09:07:06;;;;;;;39.75;23.38;;;;;;;7.43;62.57;96174.06;5080009;28;20028;-88
2024/02/18 09:09:31;;;;;;;41.67;23.17;;;;;;;7.45;62.59;96179.97;5056132;28;20533;-75
2024/02/18 09:11:56;;;;;;;41.22;23.33;;;;;;;7.47;62.89;96174.09;5088454;28;20020;-74
2024/02/18 09:14:22;;;;;;;39.67;24.42;;;;;;;7.53;62.70;96174.50;5089170;28;20031;-76
2024/02/18 09:16:48;;;;;;;43.78;23.27;;;;;;;7.50;62.74;96169.78;5086721;28;20433;-74
2024/02/18 09:19:13;;;;;;;43.72;24.60;;;;;;;7.49;62.67;96165.50;5088103;28;20024;-73
2024/02/18 09:21:39;;;;;;;44.03;24.95;;;;;;;7.56;62.48;96179.19;5086675;28;20520;-75
2024/02/18 09:24:04;;;;;;;43.42;24.80;;;;;;;7.57;62.66;96176.09;5087434;28;20027;-75
2024/02/18 09:26:29;;;;;;;44.92;24.60;;;;;;;7.59;62.72;96175.69;5087063;28;20397;-74
2024/02/18 09:28:55;;;;;;;38.63;22.65;;;;;;;7.57;62.78;96173.34;5087317;28;20154;-75
2024/02/18 09:31:20;;;;;;;46.03;24.35;;;;;;;7.62;62.83;96178.41;5087296;28;20493;-75
2024/02/18 09:33:46;;;;;;;40.45;23.05;;;;;;;7.67;62.77;96172.56;5086198;28;20024;-74
2024/02/18 09:36:11;;;;;;;40.88;24.00;;;;;;;7.66;63.62;96173.75;5087628;28;20472;-76
2024/02/18 09:38:40;;;;;;;42.35;24.08;;;;;;;7.75;63.35;96181.59;5068083;28;20050;-74
2024/02/18 09:41:06;;;;;;;45.45;23.50;;;;;;;7.79;62.77;96170.63;5087236;28;20489;-76
2024/02/18 09:43:41;;;;;;;41.03;23.65;;;;;;;7.79;62.74;96159.69;5068054;28;20036;-75
2024/02/18 09:46:08;;;;;;;43.35;24.38;;;;;;;7.88;62.68;96165.56;5087057;28;20028;-75
2024/02/18 09:48:35;;;;;;;42.55;23.25;;;;;;;7.88;62.76;96168.31;5086670;28;20031;-74
2024/02/18 09:51:01;;;;;;;41.45;23.17;;;;;;;7.86;62.95;96176.94;5066832;28;20028;-75
2024/02/18 09:53:28;;;;;;;41.35;23.65;;;;;;;7.90;62.88;96174.19;5067758;28;20021;-76
2024/02/18 09:55:53;;;;;;;42.38;24.85;;;;;;;7.93;62.95;96176.94;5083998;28;20554;-75
2024/02/18 09:58:19;;;;;;;44.97;25.25;;;;;;;8.03;62.69;96171.84;5086638;28;20016;-74
2024/02/18 10:00:45;;;;;;;37.78;23.83;;;;;;;8.04;62.37;96171.47;5085743;28;20040;-75
2024/02/18 10:03:10;;;;;;;44.17;26.77;;;;;;;8.01;62.41;96160.50;5086445;28;20043;-76
2024/02/18 10:05:36;;;;;;;42.53;25.95;;;;;;;8.06;62.39;96147.19;5086488;28;20418;-76
2024/02/18 10:08:04;;;;;;;43.17;25.15;;;;;;;8.21;61.79;96153.47;5085620;28;20103;-74
2024/02/18 10:10:33;;;;;;;42.03;23.98;;;;;;;8.28;61.65;96144.47;5068986;28;20039;-75
2024/02/18 10:13:01;;;;;;;35.63;22.70;;;;;;;8.37;61.22;96147.59;5085832;28;20028;-76
2024/02/18 10:15:27;;;;;;;40.35;24.40;;;;;;;8.38;61.22;96144.50;5086696;28;20012;-76
2024/02/18 10:17:52;;;;;;;41.10;25.52;;;;;;;8.46;61.18;96135.06;5067532;28;20024;-71
2024/02/18 10:20:18;;;;;;;38.67;24.17;;;;;;;8.49;61.14;96131.56;5086118;28;20077;-71
2024/02/18 10:22:43;;;;;;;38.15;23.10;;;;;;;8.50;60.64;96132.34;5085739;28;20020;-74
2024/02/18 10:25:09;;;;;;;37.47;22.52;;;;;;;8.51;60.91;96134.69;5085873;28;20030;-73
2024/02/18 10:27:39;;;;;;;40.65;24.10;;;;;;;8.59;60.64;96123.69;5086253;28;20502;-72
2024/02/18 10:30:07;;;;;;;43.42;24.90;;;;;;;8.67;60.40;96125.25;5085320;28;20580;-73
2024/02/18 10:32:32;;;;;;;41.53;24.33;;;;;;;8.71;60.37;96123.25;5086390;28;20043;-74
2024/02/18 10:34:58;;;;;;;37.65;23.77;;;;;;;8.76;59.88;96106.41;5085437;28;20474;-74
2024/02/18 10:37:29;;;;;;;35.67;23.15;;;;;;;8.82;59.15;96109.53;5086347;28;20504;-77
2024/02/18 10:40:33;;;;;;;36.83;22.60;;;;;;;8.89;59.31;96107.56;5067278;28;20036;-73
2024/02/18 10:43:01;;;;;;;36.05;22.33;;;;;;;8.99;58.81;96105.94;5081806;28;20036;-74
2024/02/18 10:45:26;;;;;;;37.05;22.35;;;;;;;9.09;58.37;96101.59;5086175;28;20024;-73
2024/02/18 10:47:53;;;;;;;30.77;20.58;;;;;;;9.13;58.03;96092.19;5085096;28;20043;-73
2024/02/18 10:50:19;;;;;;;31.02;19.42;;;;;;;9.19;57.93;96087.84;5085467;28;20032;-75
2024/02/18 10:53:05;;;;;;;34.10;21.15;;;;;;;9.31;57.18;96081.88;5085009;28;20257;-72
2024/02/18 10:55:46;;;;;;;31.73;19.27;;;;;;;9.45;56.68;96086.50;5084758;28;20039;-71
2024/02/18 10:58:15;;;;;;;30.35;19.27;;;;;;;9.58;56.21;96095.84;5068237;28;20028;-73
2024/02/18 11:00:44;;;;;;;28.55;18.25;;;;;;;9.73;55.86;96093.00;5084392;28;20032;-74
2024/02/18 11:03:17;;;;;;;29.38;18.45;;;;;;;9.76;55.33;96087.47;5067690;28;20020;-76
2024/02/18 11:05:44;;;;;;;37.33;22.23;;;;;;;9.84;54.69;96088.19;5065724;28;20027;-74
2024/02/18 11:08:09;;;;;;;30.33;18.98;;;;;;;9.88;54.81;96077.19;5065443;28;20092;-74
2024/02/18 11:10:36;;;;;;;26.58;18.42;;;;;;;9.99;53.90;96086.91;5066258;28;20414;-72
2024/02/18 11:13:03;;;;;;;26.58;18.25;;;;;;;10.09;53.61;96080.56;5066031;28;20047;-71
2024/02/18 11:15:28;;;;;;;33.30;19.83;;;;;;;10.03;53.96;96084.91;5067559;28;20115;-74
2024/02/18 11:17:55;;;;;;;30.35;19.67;;;;;;;10.01;53.85;96087.28;5084142;28;20197;-73
2024/02/18 11:20:20;;;;;;;32.53;19.77;;;;;;;10.00;54.13;96082.97;5066901;28;20036;-74